Time;durP1;ratioP1;P1;durP2;ratioP2;P2;SDS_P1;SDS_P2;PMS_P1;PMS_P2;Temp;Humidity;BMP_temperature;BMP_pressure;BME280_temperature;BME280_humidity;BME280_pressure;Samples;Min_cycle;Max_cycle;Signal;HPM_P1;HPM_P2
2021/11/02 00:01:57;;;;;;;3.30;1.77;;;6.60;99.90;;;;;;5034083;28;20109;-73
2021/11/02 00:04:22;;;;;;;2.20;1.60;;;6.60;99.90;;;;;;5020022;28;20057;-73
2021/11/02 00:06:48;;;;;;;3.10;1.77;;;6.70;99.90;;;;;;5034045;28;20025;-73
2021/11/02 00:09:16;;;;;;;6.60;1.77;;;6.70;99.90;;;;;;5033545;28;20387;-73
2021/11/02 00:11:42;;;;;;;1.53;1.30;;;6.60;99.90;;;;;;5052172;28;20373;-73
2021/11/02 00:14:10;;;;;;;4.53;1.70;;;6.70;99.90;;;;;;5042506;28;20457;-73
2021/11/02 00:16:36;;;;;;;2.57;1.70;;;6.60;99.90;;;;;;5033922;28;20026;-73
2021/11/02 00:19:04;;;;;;;2.83;1.60;;;6.60;99.90;;;;;;5043267;28;20098;-73
2021/11/02 00:21:34;;;;;;;2.60;1.63;;;6.60;99.90;;;;;;5038098;28;20110;-73
2021/11/02 00:27:01;;;;;;;1.70;1.50;;;6.60;99.90;;;;;;5011686;28;20137;-73
2021/11/02 00:29:26;;;;;;;2.17;1.50;;;6.60;99.90;;;;;;5028717;28;20096;-73
2021/11/02 00:31:52;;;;;;;3.17;1.80;;;6.60;99.90;;;;;;5047581;28;20045;-73
2021/11/02 00:34:17;;;;;;;2.23;1.50;;;6.60;99.90;;;;;;5033375;28;20037;-73
2021/11/02 00:36:43;;;;;;;2.33;1.50;;;6.60;99.90;;;;;;5033355;28;20108;-73
2021/11/02 00:39:09;;;;;;;2.33;1.50;;;6.60;99.90;;;;;;5033299;28;20095;-73
2021/11/02 00:41:34;;;;;;;3.07;1.60;;;6.60;99.90;;;;;;5046147;28;20033;-73
2021/11/02 00:44:00;;;;;;;2.40;1.60;;;6.60;99.90;;;;;;5034507;28;20017;-73
2021/11/02 00:46:33;;;;;;;3.00;1.70;;;6.60;99.90;;;;;;5033324;28;20029;-73
2021/11/02 00:49:00;;;;;;;1.83;1.40;;;6.60;99.90;;;;;;5033653;28;20013;-73
2021/11/02 00:51:27;;;;;;;3.47;1.80;;;6.60;99.90;;;;;;5043222;28;20041;-73
2021/11/02 00:53:53;;;;;;;3.50;1.67;;;6.60;99.90;;;;;;5038938;28;20029;-73
2021/11/02 00:56:19;;;;;;;3.10;1.60;;;6.60;99.90;;;;;;5043739;28;20029;-73
2021/11/02 00:58:45;;;;;;;3.50;1.70;;;6.50;99.90;;;;;;5032952;28;20044;-73
2021/11/02 01:01:11;;;;;;;2.77;1.60;;;6.40;99.90;;;;;;5032713;28;20101;-73
2021/11/02 01:03:37;;;;;;;4.07;1.60;;;6.40;99.90;;;;;;5032854;28;20021;-73
2021/11/02 01:06:04;;;;;;;3.37;2.07;;;6.40;99.90;;;;;;5032920;28;20096;-73
2021/11/02 01:08:30;;;;;;;3.10;1.53;;;6.40;99.90;;;;;;5033082;28;20030;-73
2021/11/02 01:10:56;;;;;;;2.30;1.60;;;6.40;99.90;;;;;;5031549;28;20521;-73
2021/11/02 01:13:22;;;;;;;3.43;1.70;;;6.40;99.90;;;;;;5032946;28;20025;-73
2021/11/02 01:15:48;;;;;;;2.43;1.50;;;6.40;99.90;;;;;;5033035;28;20030;-73
2021/11/02 01:18:14;;;;;;;2.37;1.70;;;6.40;99.90;;;;;;5032870;28;20064;-73
2021/11/02 01:20:40;;;;;;;5.10;1.60;;;6.40;99.90;;;;;;5032856;28;20049;-73
2021/11/02 01:23:06;;;;;;;3.03;2.23;;;6.40;99.90;;;;;;5032616;28;20478;-73
2021/11/02 01:25:32;;;;;;;1.83;1.63;;;6.40;99.90;;;;;;5032738;28;20021;-73
2021/11/02 01:27:57;;;;;;;2.73;1.33;;;6.40;99.90;;;;;;5032833;28;20029;-73
2021/11/02 01:30:23;;;;;;;4.27;1.50;;;6.40;99.90;;;;;;5031430;28;20466;-73
2021/11/02 01:32:49;;;;;;;4.40;1.90;;;6.30;99.90;;;;;;5032604;28;20057;-73
2021/11/02 01:35:15;;;;;;;2.30;1.67;;;6.30;99.90;;;;;;5032798;28;20026;-73
2021/11/02 01:37:41;;;;;;;4.30;1.80;;;6.30;99.90;;;;;;5032600;28;20036;-74
2021/11/02 01:40:10;;;;;;;4.93;1.70;;;6.20;99.90;;;;;;5045303;28;20036;-74
2021/11/02 01:42:38;;;;;;;4.70;2.13;;;6.20;99.90;;;;;;5050646;28;20024;-74
2021/11/02 01:45:06;;;;;;;6.10;2.00;;;6.20;99.90;;;;;;5037009;28;20067;-74
2021/11/02 01:47:34;;;;;;;4.43;2.00;;;6.20;99.90;;;;;;5050583;28;20116;-75
2021/11/02 01:50:00;;;;;;;4.10;2.10;;;6.20;99.90;;;;;;5050854;28;20013;-74
2021/11/02 01:52:26;;;;;;;2.70;1.70;;;6.10;99.90;;;;;;5036283;28;20057;-74
2021/11/02 01:54:52;;;;;;;3.07;2.10;;;6.10;99.90;;;;;;5050507;28;20446;-75
2021/11/02 01:57:18;;;;;;;3.87;2.33;;;6.10;99.90;;;;;;5050124;28;20033;-74
2021/11/02 01:59:44;;;;;;;2.10;1.80;;;6.10;99.90;;;;;;5050544;28;20052;-74
2021/11/02 02:02:30;;;;;;;2.63;1.90;;;6.10;99.90;;;;;;5036175;28;20033;-74
2021/11/02 02:05:04;;;;;;;;;;;6.10;99.90;;;;;;5040198;28;20064;-74
2021/11/02 02:07:48;;;;;;;3.40;2.10;;;6.00;99.90;;;;;;5042937;28;19913;-74
2021/11/02 02:10:26;;;;;;;4.27;2.00;;;6.00;99.90;;;;;;5054141;28;20029;-74
2021/11/02 02:13:01;;;;;;;3.90;1.83;;;6.00;99.90;;;;;;5053555;28;20078;-74
2021/11/02 02:15:32;;;;;;;4.28;1.70;;;6.00;99.90;;;;;;5041918;28;20334;-74
2021/11/02 02:18:16;;;;;;;4.37;2.10;;;6.00;99.90;;;;;;5053574;28;20068;-74
2021/11/02 02:20:50;;;;;;;3.93;2.47;;;5.90;99.90;;;;;;5043182;28;20138;-74
2021/11/02 02:23:39;;;;;;;4.20;2.40;;;5.90;99.90;;;;;;5044492;28;20017;-74
2021/11/02 02:26:41;;;;;;;3.00;2.20;;;5.80;99.90;;;;;;5053822;28;20023;-74
2021/11/02 02:29:07;;;;;;;2.80;1.93;;;5.80;99.90;;;;;;5030775;28;20445;-74
2021/11/02 02:31:36;;;;;;;3.93;1.80;;;5.70;99.90;;;;;;5053524;28;20043;-74
2021/11/02 02:34:04;;;;;;;4.43;2.10;;;5.70;99.90;;;;;;5036008;28;20108;-74
2021/11/02 02:36:32;;;;;;;2.37;1.97;;;5.70;99.90;;;;;;5047099;28;20021;-74
2021/11/02 02:39:00;;;;;;;6.83;2.57;;;5.60;99.90;;;;;;5053633;28;20497;-74
2021/11/02 02:41:26;;;;;;;4.30;2.07;;;5.60;99.90;;;;;;5042147;28;20025;-74
2021/11/02 02:43:53;;;;;;;3.40;2.03;;;5.60;99.90;;;;;;5043935;28;20446;-74
2021/11/02 02:46:19;;;;;;;4.00;1.93;;;5.60;99.90;;;;;;5043544;28;20358;-74
2021/11/02 02:48:46;;;;;;;3.47;2.20;;;5.50;99.90;;;;;;5053520;28;20033;-74
2021/11/02 02:51:13;;;;;;;4.73;1.97;;;5.50;99.90;;;;;;5046206;28;20029;-74
2021/11/02 02:53:43;;;;;;;3.73;1.90;;;5.50;99.90;;;;;;5050159;28;20020;-74
2021/11/02 02:56:10;;;;;;;6.23;2.40;;;5.50;99.90;;;;;;5040477;28;20017;-74
2021/11/02 02:58:39;;;;;;;4.03;1.90;;;5.40;99.90;;;;;;5053674;28;20730;-74
2021/11/02 03:01:06;;;;;;;4.53;2.00;;;5.40;99.90;;;;;;5047740;28;20052;-74
2021/11/02 03:03:32;;;;;;;5.80;2.73;;;5.40;99.90;;;;;;5044969;28;20473;-74
2021/11/02 03:06:13;;;;;;;3.00;1.80;;;5.30;99.90;;;;;;5053100;28;20021;-74
2021/11/02 03:08:39;;;;;;;5.30;1.90;;;5.30;99.90;;;;;;5040079;28;20025;-74
2021/11/02 03:11:08;;;;;;;5.60;1.77;;;5.30;99.90;;;;;;5046397;28;20032;-74
2021/11/02 03:13:35;;;;;;;4.20;1.90;;;5.30;99.90;;;;;;5053112;28;20432;-74
2021/11/02 03:16:08;;;;;;;5.30;1.80;;;5.20;99.90;;;;;;5052889;28;20017;-74
2021/11/02 03:48:55;;;;;;;4.65;1.70;;;5.00;99.90;;;;;;5034259;28;20036;-73
2021/11/02 04:24:39;;;;;;;6.17;1.90;;;4.80;99.90;;;;;;5033726;28;20075;-73
2021/11/02 04:27:17;;;;;;;5.77;2.13;;;4.80;99.90;;;;;;5043218;28;20102;-74
2021/11/02 04:43:35;;;;;;;8.03;4.30;;;4.60;99.90;;;;;;5050940;28;20051;-74
2021/11/02 05:08:12;;;;;;;7.13;2.20;;;4.60;99.90;;;;;;5031300;28;20118;-74
2021/11/02 05:11:06;;;;;;;6.32;2.78;;;4.50;99.90;;;;;;5034223;28;20029;-74
2021/11/02 05:57:14;;;;;;;2.47;1.53;;;5.10;99.90;;;;;;5035799;28;20473;-74
2021/11/02 05:59:43;;;;;;;2.37;1.60;;;5.10;99.90;;;;;;5021065;28;20048;-74
2021/11/02 06:02:24;;;;;;;4.07;1.73;;;5.10;99.90;;;;;;5034392;28;20014;-74
2021/11/02 06:30:09;;;;;;;3.87;2.10;;;5.30;99.90;;;;;;5034628;28;20052;-75
2021/11/02 06:32:39;;;;;;;3.73;1.70;;;5.30;99.90;;;;;;5030316;28;20029;-74
2021/11/02 06:35:16;;;;;;;4.50;1.50;;;5.40;99.90;;;;;;5033527;28;20040;-75
2021/11/02 06:38:02;;;;;;;1.80;1.40;;;5.40;99.90;;;;;;5038172;28;20017;-73
2021/11/02 06:43:33;;;;;;;3.50;1.53;;;5.50;99.90;;;;;;5035092;28;20080;-73
2021/11/02 06:46:38;;;;;;;2.92;1.45;;;5.60;99.90;;;;;;5037028;28;20167;-73
2021/11/02 06:55:22;;;;;;;4.27;1.50;;;5.70;99.90;;;;;;5044752;28;20108;-74
2021/11/02 06:57:46;;;;;;;3.20;1.20;;;5.80;99.90;;;;;;5039227;28;20052;-74
2021/11/02 07:17:31;;;;;;;3.50;1.60;;;6.20;99.90;;;;;;5033638;28;20075;-74
2021/11/02 07:20:07;;;;;;;6.50;1.73;;;6.30;99.90;;;;;;5050168;28;20021;-74
2021/11/02 08:47:45;;;;;;;1.70;1.00;;;8.90;99.90;;;;;;5031892;28;20032;-74
2021/11/02 08:50:12;;;;;;;3.07;0.80;;;9.00;99.90;;;;;;5031260;28;20025;-74
2021/11/02 08:52:39;;;;;;;3.80;1.10;;;9.10;99.90;;;;;;5032547;28;20032;-74
2021/11/02 08:55:07;;;;;;;2.50;1.00;;;9.20;99.90;;;;;;5032938;28;20092;-74
2021/11/02 08:57:33;;;;;;;3.03;1.20;;;9.30;99.90;;;;;;5032658;28;20087;-74
2021/11/02 09:00:00;;;;;;;1.33;0.80;;;9.30;99.90;;;;;;5032819;28;20506;-74
2021/11/02 09:02:29;;;;;;;3.63;0.83;;;9.30;99.90;;;;;;5032322;28;20354;-74
2021/11/02 09:05:07;;;;;;;1.67;0.70;;;9.50;99.90;;;;;;5029661;28;20546;-75
2021/11/02 09:07:34;;;;;;;2.20;0.80;;;9.50;99.90;;;;;;5031585;28;20018;-75
2021/11/02 09:10:01;;;;;;;2.60;1.13;;;9.40;99.90;;;;;;5028466;28;20031;-75
2021/11/02 09:12:32;;;;;;;2.30;0.90;;;9.40;99.90;;;;;;5031519;28;20029;-74
2021/11/02 09:15:01;;;;;;;3.03;0.80;;;9.40;99.90;;;;;;5031892;28;20033;-74
2021/11/02 09:17:33;;;;;;;2.87;1.30;;;9.30;99.90;;;;;;5032868;28;20028;-75
2021/11/02 09:20:00;;;;;;;3.00;0.80;;;9.40;99.90;;;;;;5030881;28;20029;-74
2021/11/02 09:22:26;;;;;;;4.87;1.67;;;9.50;99.90;;;;;;5029262;28;20033;-75
2021/11/02 09:24:52;;;;;;;3.40;1.10;;;9.50;99.90;;;;;;5028741;28;20169;-75
2021/11/02 09:27:19;;;;;;;3.83;0.90;;;9.60;99.90;;;;;;5032878;28;20075;-74
2021/11/02 09:29:46;;;;;;;3.03;0.97;;;9.60;99.90;;;;;;5032503;28;20018;-74
2021/11/02 09:32:12;;;;;;;2.17;0.90;;;9.70;99.90;;;;;;5032182;28;20557;-73
2021/11/02 09:34:38;;;;;;;2.67;0.87;;;9.60;99.90;;;;;;5032684;28;20060;-73
2021/11/02 09:37:07;;;;;;;2.17;0.90;;;9.50;99.90;;;;;;5032381;28;20025;-73
2021/11/02 09:39:40;;;;;;;6.87;1.20;;;9.40;99.90;;;;;;5032373;28;20021;-73
2021/11/02 09:42:21;;;;;;;3.27;1.13;;;9.50;99.90;;;;;;5028444;28;20053;-73
2021/11/02 09:45:25;;;;;;;2.23;1.23;;;9.60;99.90;;;;;;5032496;28;20120;-73
2021/11/02 09:48:17;;;;;;;2.23;0.80;;;9.70;99.90;;;;;;5013247;28;20034;-73
2021/11/02 09:50:43;;;;;;;3.47;1.00;;;9.70;99.90;;;;;;5021551;28;20083;-72
2021/11/02 09:53:49;;;;;;;5.47;1.17;;;9.80;99.90;;;;;;5032527;28;20029;-73
2021/11/02 09:56:37;;;;;;;2.97;1.00;;;9.80;99.90;;;;;;5028549;28;20044;-73
2021/11/02 09:59:34;;;;;;;5.70;1.10;;;10.00;99.90;;;;;;5032050;28;20036;-73
2021/11/02 10:02:31;;;;;;;3.90;1.00;;;10.10;99.90;;;;;;5032152;28;20033;-73
2021/11/02 10:05:26;;;;;;;4.07;1.37;;;10.20;99.90;;;;;;5015579;28;20131;-73
2021/11/02 10:08:06;;;;;;;2.90;1.27;;;10.30;99.90;;;;;;5028047;28;20029;-73
2021/11/02 10:10:57;;;;;;;7.53;0.95;;;10.40;99.90;;;;;;5028336;28;20032;-73
2021/11/02 10:13:32;;;;;;;4.30;1.00;;;10.50;99.90;;;;;;5031120;28;20053;-73
2021/11/02 10:16:07;;;;;;;2.65;1.00;;;10.50;99.90;;;;;;5030139;28;20491;-73
2021/11/02 10:18:53;;;;;;;3.30;1.00;;;10.70;99.90;;;;;;5031532;28;20371;-73
2021/11/02 10:21:36;;;;;;;2.95;1.10;;;10.70;99.90;;;;;;5029406;28;20053;-73
2021/11/02 10:24:29;;;;;;;1.75;0.70;;;10.70;99.90;;;;;;5031571;28;20128;-73
2021/11/02 10:27:13;;;;;;;2.28;0.80;;;10.80;99.90;;;;;;5031138;28;20659;-72
2021/11/02 10:30:24;;;;;;;2.17;0.85;;;10.80;99.90;;;;;;5035125;28;20040;-73
2021/11/02 10:32:55;;;;;;;3.42;1.10;;;10.90;99.90;;;;;;5033737;28;20103;-72
2021/11/02 10:35:35;;;;;;;3.83;1.10;;;10.90;99.90;;;;;;5033134;28;20033;-73
2021/11/02 10:38:11;;;;;;;5.13;1.10;;;11.00;99.90;;;;;;5034081;28;20061;-73
2021/11/02 10:40:42;;;;;;;3.22;0.88;;;10.90;99.90;;;;;;5034799;28;20061;-74
2021/11/02 10:43:10;;;;;;;1.75;0.98;;;11.10;99.90;;;;;;5032308;28;20029;-73
2021/11/02 10:45:52;;;;;;;2.03;0.93;;;11.10;99.90;;;;;;5032257;28;20033;-73
2021/11/02 10:48:24;;;;;;;3.60;0.93;;;11.10;99.90;;;;;;5032571;28;20153;-73
2021/11/02 10:50:56;;;;;;;2.22;0.70;;;11.20;99.90;;;;;;5031613;28;20036;-73
2021/11/02 10:53:38;;;;;;;3.03;0.90;;;11.30;99.90;;;;;;5035515;28;20033;-74
2021/11/02 10:56:10;;;;;;;3.03;0.95;;;11.30;99.90;;;;;;5032064;28;20033;-75
2021/11/02 10:58:48;;;;;;;2.47;0.90;;;11.30;99.90;;;;;;5021432;28;20032;-75
2021/11/02 11:01:16;;;;;;;2.25;0.70;;;11.20;99.90;;;;;;5017107;28;20041;-75
2021/11/02 11:03:42;;;;;;;1.83;0.73;;;11.10;99.90;;;;;;5023571;28;20017;-74
2021/11/02 11:06:13;;;;;;;3.35;0.95;;;11.00;99.90;;;;;;5027542;28;20045;-74
2021/11/02 11:08:45;;;;;;;4.85;0.75;;;11.10;99.90;;;;;;5034581;28;20037;-74
2021/11/02 11:11:13;;;;;;;1.75;0.80;;;11.10;99.90;;;;;;5034977;28;20025;-74
2021/11/02 11:13:40;;;;;;;3.42;0.90;;;11.20;99.90;;;;;;5038767;28;20036;-73
2021/11/02 11:16:19;;;;;;;4.70;0.98;;;11.30;99.90;;;;;;5037256;28;20016;-70
2021/11/02 11:19:01;;;;;;;3.85;1.35;;;11.50;99.90;;;;;;5034285;28;20030;-75
2021/11/02 11:21:27;;;;;;;3.33;1.00;;;11.50;99.90;;;;;;5031986;28;20485;-76
2021/11/02 11:23:56;;;;;;;2.47;0.90;;;11.60;99.90;;;;;;5042251;28;20116;-75
2021/11/02 11:26:25;;;;;;;4.32;1.23;;;11.50;99.90;;;;;;5038291;28;20014;-74
2021/11/02 11:28:53;;;;;;;2.33;0.70;;;11.50;99.90;;;;;;5039831;28;20776;-75
2021/11/02 11:31:21;;;;;;;2.95;1.02;;;11.40;99.90;;;;;;5027164;28;20021;-74
2021/11/02 11:33:50;;;;;;;2.40;1.00;;;11.30;99.90;;;;;;5029686;28;20371;-74
2021/11/02 11:36:17;;;;;;;5.95;1.35;;;10.90;99.90;;;;;;5031337;28;20115;-74
2021/11/02 11:38:44;;;;;;;5.55;1.02;;;10.70;99.90;;;;;;5031862;28;20038;-74
2021/11/02 11:41:12;;;;;;;3.20;1.10;;;10.50;99.90;;;;;;5028601;28;20108;-75
2021/11/02 11:43:42;;;;;;;5.15;1.17;;;10.30;99.90;;;;;;5026868;28;20033;-74
2021/11/02 11:46:10;;;;;;;6.05;1.20;;;10.20;99.90;;;;;;5029225;28;20576;-75
2021/11/02 11:48:42;;;;;;;3.03;1.13;;;10.10;99.90;;;;;;5030940;28;20112;-75
2021/11/02 11:51:19;;;;;;;3.97;1.20;;;10.10;99.90;;;;;;5024967;28;20475;-75
2021/11/02 11:53:47;;;;;;;6.00;1.13;;;10.10;99.90;;;;;;5031214;28;20024;-74
2021/11/02 11:56:15;;;;;;;6.05;1.70;;;10.10;99.90;;;;;;5029288;28;20083;-73
2021/11/02 11:58:54;;;;;;;2.10;0.90;;;10.20;99.90;;;;;;5029974;28;20021;-73
2021/11/02 12:01:51;;;;;;;3.97;1.45;;;10.30;99.90;;;;;;5027592;28;20651;-74
2021/11/02 12:04:16;;;;;;;2.15;0.77;;;10.30;99.90;;;;;;5028789;28;20068;-74
2021/11/02 12:07:03;;;;;;;3.30;0.90;;;10.20;99.90;;;;;;5034041;28;20429;-74
2021/11/02 12:09:38;;;;;;;2.80;1.08;;;10.40;99.90;;;;;;5028612;28;20120;-74
2021/11/02 12:12:06;;;;;;;3.38;0.93;;;10.50;99.90;;;;;;5031914;28;20031;-74
2021/11/02 12:14:41;;;;;;;2.45;0.90;;;10.60;99.90;;;;;;5031059;28;20474;-75
2021/11/02 12:17:15;;;;;;;1.48;0.82;;;10.70;99.90;;;;;;5031083;28;20068;-75
2021/11/02 12:20:05;;;;;;;4.17;0.90;;;10.60;99.90;;;;;;5032112;28;20013;-74
2021/11/02 12:22:34;;;;;;;1.52;1.00;;;10.70;99.90;;;;;;5033560;28;20362;-75
2021/11/02 12:25:10;;;;;;;4.60;1.00;;;10.70;99.90;;;;;;5030001;28;20014;-75
2021/11/02 12:27:42;;;;;;;2.45;0.90;;;10.60;99.90;;;;;;5033807;28;20024;-75
2021/11/02 12:30:10;;;;;;;4.18;1.65;;;10.50;99.90;;;;;;5029220;28;20692;-75
2021/11/02 12:32:38;;;;;;;3.85;1.88;;;10.40;99.90;;;;;;5031734;28;20485;-75
2021/11/02 12:35:18;;;;;;;3.75;1.20;;;10.50;99.90;;;;;;5030164;28;20021;-75
2021/11/02 12:37:55;;;;;;;2.45;0.88;;;10.50;99.90;;;;;;5030763;28;20747;-75
2021/11/02 12:40:27;;;;;;;3.05;1.00;;;10.40;99.90;;;;;;5028618;28;20044;-75
2021/11/02 12:42:53;;;;;;;2.93;0.93;;;10.30;99.90;;;;;;5031062;28;20117;-74
2021/11/02 12:45:21;;;;;;;1.90;1.08;;;10.30;99.90;;;;;;5030345;28;20108;-75
2021/11/02 12:47:48;;;;;;;4.70;0.80;;;10.40;99.90;;;;;;5028658;28;20022;-75
2021/11/02 12:50:19;;;;;;;2.13;0.80;;;10.30;99.90;;;;;;5029183;28;20025;-73
2021/11/02 12:52:45;;;;;;;0.75;0.60;;;10.30;99.90;;;;;;5028323;28;20117;-73
2021/11/02 12:55:14;;;;;;;1.83;0.60;;;10.30;99.90;;;;;;5032158;28;20061;-73
2021/11/02 12:57:48;;;;;;;1.05;0.95;;;10.20;99.90;;;;;;5032476;28;20029;-73
2021/11/02 13:00:26;;;;;;;1.30;0.70;;;10.20;99.90;;;;;;5028993;28;20084;-73
2021/11/02 13:02:58;;;;;;;1.08;0.60;;;10.30;99.90;;;;;;5027854;28;20033;-73
2021/11/02 13:05:25;;;;;;;1.07;0.60;;;10.30;99.90;;;;;;5030527;28;20117;-73
2021/11/02 13:08:02;;;;;;;0.87;0.60;;;10.30;99.90;;;;;;5037706;28;20031;-73
2021/11/02 13:10:32;;;;;;;0.90;0.73;;;10.20;99.90;;;;;;5030127;28;20026;-73
2021/11/02 13:13:12;;;;;;;1.07;0.63;;;10.20;99.90;;;;;;5027688;28;20530;-73
2021/11/02 13:15:54;;;;;;;1.80;0.60;;;10.10;99.90;;;;;;5028441;28;20041;-73
2021/11/02 13:18:39;;;;;;;1.05;0.50;;;10.20;99.90;;;;;;5030922;28;20035;-73
2021/11/02 13:21:24;;;;;;;0.63;0.50;;;10.20;99.90;;;;;;5019510;28;20132;-73
2021/11/02 13:24:06;;;;;;;1.45;0.60;;;10.30;99.90;;;;;;5040996;28;20037;-73
2021/11/02 13:26:33;;;;;;;0.88;0.70;;;10.30;99.90;;;;;;5047195;28;20033;-73
2021/11/02 13:29:10;;;;;;;0.50;0.40;;;10.40;99.90;;;;;;5043105;28;20025;-74
2021/11/02 13:31:37;;;;;;;1.70;0.83;;;10.40;99.90;;;;;;5030269;28;20026;-73
2021/11/02 13:34:05;;;;;;;2.45;0.77;;;10.40;99.90;;;;;;5040199;28;20068;-73
2021/11/02 13:36:32;;;;;;;1.58;0.70;;;10.50;99.90;;;;;;5030553;28;20017;-73
2021/11/02 13:38:59;;;;;;;0.90;0.77;;;10.60;99.90;;;;;;5030426;28;20378;-70
2021/11/02 13:41:30;;;;;;;1.00;0.75;;;10.80;99.90;;;;;;5024487;28;20478;-73
2021/11/02 13:44:04;;;;;;;0.90;0.60;;;10.90;99.90;;;;;;5035316;28;20017;-73
2021/11/02 13:46:36;;;;;;;1.73;0.50;;;10.80;99.90;;;;;;5030084;28;20085;-73
2021/11/02 13:49:03;;;;;;;1.13;0.77;;;10.80;99.90;;;;;;5030504;28;20040;-73
2021/11/02 13:51:28;;;;;;;0.60;0.57;;;10.70;99.90;;;;;;5030287;28;20029;-73
2021/11/02 13:53:54;;;;;;;0.65;0.60;;;10.60;99.90;;;;;;5030937;28;20021;-73
2021/11/02 13:56:23;;;;;;;0.50;0.50;;;10.70;99.90;;;;;;5029548;28;20029;-73
2021/11/02 13:58:50;;;;;;;0.90;0.70;;;10.70;99.90;;;;;;5030326;28;20025;-73
2021/11/02 14:01:21;;;;;;;0.90;0.60;;;10.70;99.90;;;;;;5024714;28;20490;-73
2021/11/02 14:03:53;;;;;;;1.00;0.70;;;10.80;99.90;;;;;;5032715;28;20033;-73
2021/11/02 14:06:21;;;;;;;1.02;0.70;;;11.00;99.90;;;;;;5034887;28;20033;-73
2021/11/02 14:08:48;;;;;;;0.63;0.52;;;10.80;99.90;;;;;;5032308;28;20014;-73
2021/11/02 14:11:35;;;;;;;2.05;0.63;;;10.90;99.90;;;;;;5030566;28;20018;-73
2021/11/02 14:14:02;;;;;;;2.65;1.05;;;10.80;99.90;;;;;;5032506;28;20029;-73
2021/11/02 14:16:43;;;;;;;3.03;1.17;;;10.80;99.90;;;;;;5031912;28;20031;-73
2021/11/02 14:19:33;;;;;;;0.63;0.60;;;10.70;99.90;;;;;;5046001;28;20028;-73
2021/11/02 14:22:01;;;;;;;2.05;0.60;;;10.70;99.90;;;;;;5043916;28;20040;-73
2021/11/02 14:24:43;;;;;;;0.65;0.52;;;10.70;99.90;;;;;;5024639;28;20029;-73
2021/11/02 14:27:33;;;;;;;4.07;0.60;;;10.70;99.90;;;;;;5033261;28;20017;-73
2021/11/02 14:29:58;;;;;;;2.55;0.70;;;10.80;99.90;;;;;;5026981;28;20128;-73
2021/11/02 14:32:36;;;;;;;1.20;0.60;;;10.50;99.90;;;;;;5029390;28;20057;-73
2021/11/02 14:35:09;;;;;;;1.30;0.98;;;10.50;99.90;;;;;;5027307;28;20071;-73
2021/11/02 14:37:50;;;;;;;1.15;0.60;;;10.40;99.90;;;;;;5029141;28;20067;-73
2021/11/02 14:40:27;;;;;;;5.00;0.68;;;10.30;99.90;;;;;;5029386;28;20482;-73
2021/11/02 14:42:58;;;;;;;3.33;0.60;;;10.30;99.90;;;;;;5028027;28;20032;-73
2021/11/02 14:45:41;;;;;;;1.77;0.60;;;10.20;99.90;;;;;;5030968;28;20017;-73
2021/11/02 14:48:34;;;;;;;0.50;0.50;;;10.20;99.90;;;;;;5028724;28;20018;-73
2021/11/02 14:51:20;;;;;;;1.92;0.88;;;10.30;99.90;;;;;;5029159;28;20075;-73
2021/11/02 14:53:47;;;;;;;1.27;0.90;;;10.30;99.90;;;;;;5030703;28;20108;-73
2021/11/02 14:56:25;;;;;;;1.35;0.60;;;10.40;99.90;;;;;;5029667;28;20065;-73
2021/11/02 14:58:56;;;;;;;1.70;0.80;;;10.30;99.90;;;;;;5031140;28;20534;-73
2021/11/02 15:01:47;;;;;;;1.95;0.90;;;10.20;99.90;;;;;;5033470;28;20065;-74
2021/11/02 15:04:15;;;;;;;1.50;0.70;;;10.20;99.90;;;;;;5029799;28;20139;-74
2021/11/02 15:06:42;;;;;;;1.75;0.82;;;10.10;99.90;;;;;;5033983;28;20029;-73
2021/11/02 15:09:14;;;;;;;0.93;0.73;;;9.90;99.90;;;;;;5033674;28;20040;-74
2021/11/02 15:11:41;;;;;;;3.10;0.80;;;9.80;99.90;;;;;;5030158;28;20033;-74
2021/11/02 15:14:15;;;;;;;2.20;0.80;;;9.60;99.90;;;;;;5027889;28;20098;-73
2021/11/02 15:16:49;;;;;;;2.65;0.65;;;9.50;99.90;;;;;;5027955;28;20037;-74
2021/11/02 15:19:16;;;;;;;4.20;0.87;;;9.40;99.90;;;;;;5027781;28;20490;-73
2021/11/02 15:21:45;;;;;;;2.37;1.03;;;9.20;99.90;;;;;;5030000;28;20057;-73
2021/11/02 15:24:20;;;;;;;1.90;1.00;;;9.20;99.90;;;;;;5028580;28;20021;-74
2021/11/02 15:26:48;;;;;;;;;;;9.00;99.90;;;;;;5029703;28;20121;-74
2021/11/02 15:29:14;;;;;;;5.60;1.00;;;8.90;99.90;;;;;;5030176;28;19909;-73
2021/11/02 15:31:40;;;;;;;6.03;1.10;;;8.80;99.90;;;;;;5032286;28;20207;-74
2021/11/02 15:34:14;;;;;;;1.83;0.93;;;8.70;99.90;;;;;;5029472;28;20034;-74
2021/11/02 15:36:40;;;;;;;6.73;1.23;;;8.60;99.90;;;;;;5029171;28;20738;-73
2021/11/02 15:39:07;;;;;;;1.50;0.80;;;8.50;99.90;;;;;;5028090;28;20034;-74
2021/11/02 15:41:33;;;;;;;3.00;1.00;;;8.40;99.90;;;;;;5028994;28;20044;-73
2021/11/02 15:44:06;;;;;;;2.17;0.90;;;8.40;99.90;;;;;;5028190;28;20073;-73
2021/11/02 15:46:33;;;;;;;2.07;0.90;;;8.30;99.90;;;;;;5028616;28;20031;-73
2021/11/02 15:49:00;;;;;;;1.83;1.00;;;8.20;99.90;;;;;;5031806;28;20021;-73
2021/11/02 15:51:52;;;;;;;8.43;1.10;;;8.20;99.90;;;;;;5028683;28;20104;-73
2021/11/02 15:54:19;;;;;;;2.10;1.00;;;8.10;99.90;;;;;;5026140;28;20819;-75
2021/11/02 15:56:45;;;;;;;3.03;1.20;;;8.10;99.90;;;;;;5030975;28;20025;-74
2021/11/02 15:59:11;;;;;;;2.17;1.00;;;8.00;99.90;;;;;;5030163;28;20034;-75
2021/11/02 16:01:40;;;;;;;2.53;1.20;;;8.00;99.90;;;;;;5030777;28;20024;-75
2021/11/02 16:04:12;;;;;;;5.90;1.30;;;8.00;99.90;;;;;;5028255;28;20109;-75
2021/11/02 16:07:02;;;;;;;3.00;1.40;;;8.00;99.90;;;;;;5029377;28;20580;-75
2021/11/02 16:09:53;;;;;;;6.03;1.80;;;8.00;99.90;;;;;;5027477;28;20128;-75
2021/11/02 16:12:24;;;;;;;7.50;2.13;;;8.00;99.90;;;;;;5025779;28;20057;-75
2021/11/02 16:14:52;;;;;;;4.73;1.50;;;7.90;99.90;;;;;;5028096;28;20458;-75
2021/11/02 16:17:19;;;;;;;6.50;1.70;;;7.80;99.90;;;;;;5031171;28;20032;-75
2021/11/02 16:19:46;;;;;;;4.67;1.30;;;7.70;99.90;;;;;;5041992;28;20051;-75
2021/11/02 16:22:12;;;;;;;3.60;1.90;;;7.60;99.90;;;;;;5038249;28;20033;-75
2021/11/02 16:24:38;;;;;;;7.73;1.63;;;7.50;99.90;;;;;;5042318;28;20033;-73
2021/11/02 16:27:21;;;;;;;4.70;1.60;;;7.50;99.90;;;;;;5037245;28;20029;-73
2021/11/02 16:29:48;;;;;;;4.57;2.03;;;7.40;99.90;;;;;;5038829;28;20060;-69
2021/11/02 16:32:28;;;;;;;3.10;1.53;;;7.40;99.90;;;;;;5030248;28;20545;-73
2021/11/02 16:34:55;;;;;;;2.97;1.47;;;7.30;99.90;;;;;;5028316;28;20029;-74
2021/11/02 16:37:37;;;;;;;1.37;1.17;;;7.30;99.90;;;;;;5030047;28;20079;-75
2021/11/02 16:40:26;;;;;;;5.23;1.40;;;7.20;99.90;;;;;;5026335;28;20159;-74
2021/11/02 16:42:58;;;;;;;2.43;1.30;;;7.20;99.90;;;;;;5028856;28;20033;-74
2021/11/02 16:45:28;;;;;;;3.70;1.60;;;7.10;99.90;;;;;;5027433;28;20030;-74
2021/11/02 16:47:55;;;;;;;3.37;1.70;;;7.10;99.90;;;;;;5030836;28;20880;-74
2021/11/02 16:50:30;;;;;;;5.80;1.77;;;7.00;99.90;;;;;;5025168;28;20488;-73
2021/11/02 16:53:08;;;;;;;5.97;1.52;;;6.90;99.90;;;;;;5025244;28;20030;-73
2021/11/02 16:55:37;;;;;;;7.10;1.70;;;6.90;99.90;;;;;;5028066;28;20040;-74
2021/11/02 16:58:18;;;;;;;4.57;1.80;;;6.90;99.90;;;;;;5029704;28;20932;-74
2021/11/02 17:00:44;;;;;;;3.13;1.93;;;6.80;99.90;;;;;;5028973;28;20493;-73
2021/11/02 17:03:13;;;;;;;6.30;2.30;;;6.90;99.90;;;;;;5029946;28;20041;-73
2021/11/02 17:05:43;;;;;;;4.73;2.37;;;6.80;99.90;;;;;;5030238;28;20041;-73
2021/11/02 17:08:12;;;;;;;5.10;1.87;;;6.80;99.90;;;;;;5029699;28;20120;-73
2021/11/02 17:10:46;;;;;;;4.40;2.10;;;6.90;99.90;;;;;;5029671;28;20110;-73
2021/11/02 17:13:25;;;;;;;5.57;1.80;;;6.90;99.90;;;;;;5028058;28;20040;-73
2021/11/02 17:15:53;;;;;;;3.30;1.80;;;7.00;99.90;;;;;;5029416;28;20724;-73
2021/11/02 17:18:24;;;;;;;3.27;1.83;;;7.00;99.90;;;;;;5029357;28;20045;-73
2021/11/02 17:21:05;;;;;;;3.03;2.20;;;7.00;99.90;;;;;;5030667;28;20065;-73
2021/11/02 17:23:31;;;;;;;4.63;2.10;;;7.10;99.90;;;;;;5029580;28;20375;-73
2021/11/02 17:25:57;;;;;;;5.93;2.47;;;7.10;99.90;;;;;;5031375;28;20025;-73
2021/11/02 17:28:23;;;;;;;4.67;1.90;;;7.00;99.90;;;;;;5029856;28;20033;-73
2021/11/02 17:30:49;;;;;;;5.43;2.90;;;6.90;99.90;;;;;;5030983;28;20034;-74
2021/11/02 17:33:17;;;;;;;7.17;3.03;;;6.90;99.90;;;;;;5028254;28;20044;-74
2021/11/02 17:35:43;;;;;;;2.90;2.00;;;6.90;99.90;;;;;;5030247;28;20029;-74
2021/11/02 17:38:10;;;;;;;7.50;2.33;;;6.80;99.90;;;;;;5026931;28;20037;-74
2021/11/02 17:40:36;;;;;;;5.90;1.70;;;6.70;99.90;;;;;;5029818;28;20037;-74
2021/11/02 17:43:02;;;;;;;5.27;1.80;;;6.70;99.90;;;;;;5031146;28;20025;-74
2021/11/02 17:45:29;;;;;;;5.07;1.60;;;6.60;99.90;;;;;;5031334;28;20029;-75
2021/11/02 17:47:57;;;;;;;4.33;1.77;;;6.60;99.90;;;;;;5031005;28;20052;-74
2021/11/02 17:50:27;;;;;;;4.80;1.60;;;6.50;99.90;;;;;;5048781;28;20036;-74
2021/11/02 17:52:54;;;;;;;3.43;1.70;;;6.40;99.90;;;;;;5049477;28;20029;-74
2021/11/02 17:55:20;;;;;;;5.80;1.73;;;6.30;99.90;;;;;;5044525;28;20442;-75
2021/11/02 17:57:47;;;;;;;6.53;1.50;;;6.30;99.90;;;;;;5029575;28;20124;-74
2021/11/02 18:00:16;;;;;;;3.73;1.50;;;6.30;99.90;;;;;;5031797;28;20061;-74
2021/11/02 18:02:42;;;;;;;3.33;1.40;;;6.20;99.90;;;;;;5047946;28;20381;-74